Terminal Aerodrome Forecast
Issued by NWS Goodland, KS

Home | Current Version | Previous Version | Text Only | Print | Product List | Glossary On
Versions: 1 2 3 4 5 6 7 8 9 10 11
859
FTUS43 KGLD 090520
TAFGLD
TAF
KGLD 090520Z 0906/1006 VRB05KT P6SM SCT200
     FM090900 30010KT P6SM SCT060 SCT200 WS020/35045KT
     FM091500 33014G24KT P6SM SCT060 SCT250
     FM100000 29008KT P6SM SCT250=

USA.gov is the U.S. government's official web portal to all federal, state and local government web resources and services.